Terminal Aerodrome Forecast
Issued by NWS Blacksburg, VA

Current Version | Previous Version | Text Only | Print | Product List | Glossary Off
Versions: 1 2 3 4 5 6 7 8 9 10 11 12 13 14 15 16 17 18 19 20 21

000
FTUS41 KRNK 300520
TAFBLF
TAF
KBLF 300520Z 3006/0106 16009KT P6SM SCT040
     FM301000 18013G29KT P6SM OVC040
     FM301200 19013G29KT 4SM -SHRA OVC035
     FM302000 25008G18KT 5SM -SHRA OVC020
     FM010000 27011G22KT P6SM OVC035=

USA.gov is the U.S. government's official web portal to all federal, state and local government web resources and services.